RJSM METAR and TAF | Updated Today

RJSM METAR

Misawa Air Base

Observation time: 63 min. ago

RJSM 200600Z 10008KT 070V130 9999 FEW030 BKN120 21/10 Q1012

Need help? Read our tutorial on how to read METARs or read the parsed version below.

Misawa Air Base (RJSM) METAR

  • Weather conditions on Fri, 20 May 2022 06:00:00 +0000 (63 min. ago):
  • Present conditions: Dry
  • Clouds: A few at 914 meters; broken sky at 3658 meters
  • Visibility: Greater than 10 km
  • Wind: 100 degrees at 8 knots
  • Temperature: 21 celsius
  • Dew point: 10 celsius
  • Pressure: 1012 millibars
  • Remarks: None


Useful to know...